VKG7AJ EKCH-ESSA
Flight info
| Callsign | VKG7AJ |
|---|---|
| Flight time | 0h 55m |
| Altitude | 35000 |
| Route | KEMAX N851 ROXEN DCT MIKNA N851 PELUP Z226 NILUG |
| Aircraft | A321/M-SDE3FGHIRWY/LB1 |
Departure
| Time | 2026-05-06 13:00 |
|---|---|
| Airport | Copenhagen Kastrup Airport (EKCH) |
Arrival
| Time | 2026-05-06 13:56 |
|---|---|
| Airport | Stockholm-Arlanda Airport (ESSA) |
| Time | Latitude | Longitude | Altitude | Speed | Heading |
|---|---|---|---|---|---|
| 2026-05-06 12:30 | 55.62905 | 12.63624 | 24 ft | 0 kts | 43° |
| 2026-05-06 12:35 | 55.62905 | 12.63623 | 24 ft | 0 kts | 43° |
| 2026-05-06 12:43 | 55.62904 | 12.63622 | 24 ft | 1 kts | 43° |
| 2026-05-06 12:44 | 55.62900 | 12.63615 | 24 ft | 4 kts | 43° |
| 2026-05-06 12:44 | 55.62884 | 12.63589 | 28 ft | 4 kts | 47° |
| 2026-05-06 12:44 | 55.62880 | 12.63581 | 28 ft | 4 kts | 51° |
| 2026-05-06 12:44 | 55.62873 | 12.63565 | 27 ft | 4 kts | 57° |
| 2026-05-06 12:45 | 55.62866 | 12.63545 | 27 ft | 4 kts | 65° |
| 2026-05-06 12:45 | 55.62858 | 12.63501 | 29 ft | 4 kts | 85° |
| 2026-05-06 12:45 | 55.62857 | 12.63484 | 29 ft | 2 kts | 86° |
| 2026-05-06 12:46 | 55.62857 | 12.63483 | 29 ft | 0 kts | 86° |
| 2026-05-06 12:50 | 55.62860 | 12.63549 | 29 ft | 13 kts | 86° |
| 2026-05-06 12:51 | 55.62864 | 12.63685 | 24 ft | 0 kts | 86° |
| 2026-05-06 12:51 | 55.62865 | 12.63694 | 24 ft | 0 kts | 86° |
| 2026-05-06 12:51 | 55.62864 | 12.63698 | 24 ft | 0 kts | 93° |
| 2026-05-06 12:51 | 55.62864 | 12.63704 | 24 ft | 3 kts | 97° |
| 2026-05-06 12:52 | 55.62863 | 12.63711 | 24 ft | 0 kts | 100° |
| 2026-05-06 12:55 | 55.62862 | 12.63716 | 26 ft | 3 kts | 101° |
| 2026-05-06 12:55 | 55.62839 | 12.63887 | 24 ft | 18 kts | 107° |
| 2026-05-06 12:55 | 55.62745 | 12.63924 | 24 ft | 16 kts | 210° |
| 2026-05-06 12:55 | 55.62654 | 12.63813 | 24 ft | 16 kts | 211° |
| 2026-05-06 12:56 | 55.62517 | 12.63778 | 24 ft | 28 kts | 165° |
| 2026-05-06 12:56 | 55.62370 | 12.64033 | 22 ft | 31 kts | 122° |
| 2026-05-06 12:56 | 55.62251 | 12.64368 | 22 ft | 32 kts | 122° |
| 2026-05-06 12:56 | 55.62128 | 12.64697 | 26 ft | 30 kts | 123° |
| 2026-05-06 12:57 | 55.62060 | 12.64879 | 29 ft | 0 kts | 124° |
| 2026-05-06 12:57 | 55.62059 | 12.64882 | 29 ft | 0 kts | 124° |
| 2026-05-06 12:57 | 55.62055 | 12.64893 | 26 ft | 4 kts | 125° |
| 2026-05-06 12:57 | 55.62026 | 12.64933 | 26 ft | 6 kts | 159° |
| 2026-05-06 12:58 | 55.61981 | 12.64912 | 25 ft | 5 kts | 210° |
| 2026-05-06 12:58 | 55.61962 | 12.64892 | 24 ft | 7 kts | 211° |
| 2026-05-06 12:58 | 55.61870 | 12.64787 | 25 ft | 23 kts | 213° |
| 2026-05-06 12:58 | 55.61729 | 12.64622 | 25 ft | 25 kts | 213° |
| 2026-05-06 12:59 | 55.61578 | 12.64452 | 26 ft | 26 kts | 212° |
| 2026-05-06 12:59 | 55.61423 | 12.64272 | 27 ft | 28 kts | 214° |
| 2026-05-06 12:59 | 55.61272 | 12.64114 | 24 ft | 21 kts | 192° |
| 2026-05-06 12:59 | 55.61186 | 12.64264 | 26 ft | 24 kts | 78° |
| 2026-05-06 13:00 | 55.61254 | 12.64641 | 28 ft | 36 kts | 72° |
| 2026-05-06 13:00 | 55.61423 | 12.65027 | 28 ft | 59 kts | 40° |
| 2026-05-06 13:00 | 55.61959 | 12.65858 | 28 ft | 140 kts | 47° |
| 2026-05-06 13:00 | 55.62734 | 12.67067 | 709 ft | 147 kts | 46° |
| 2026-05-06 13:01 | 55.63473 | 12.68246 | 1710 ft | 144 kts | 47° |
| 2026-05-06 13:01 | 55.63982 | 12.69049 | 2182 ft | 154 kts | 46° |
| 2026-05-06 13:01 | 55.64843 | 12.70390 | 2713 ft | 176 kts | 45° |
| 2026-05-06 13:01 | 55.65832 | 12.71895 | 3167 ft | 199 kts | 43° |
| 2026-05-06 13:02 | 55.67360 | 12.74171 | 3859 ft | 235 kts | 42° |
| 2026-05-06 13:02 | 55.68665 | 12.76102 | 4769 ft | 251 kts | 41° |
| 2026-05-06 13:02 | 55.70030 | 12.78099 | 5927 ft | 259 kts | 40° |
| 2026-05-06 13:02 | 55.71428 | 12.80136 | 7126 ft | 263 kts | 39° |
| 2026-05-06 13:03 | 55.72374 | 12.81510 | 7867 ft | 268 kts | 39° |
| 2026-05-06 13:03 | 55.73838 | 12.83642 | 8912 ft | 277 kts | 39° |
| 2026-05-06 13:03 | 55.75352 | 12.85849 | 9935 ft | 287 kts | 39° |
| 2026-05-06 13:03 | 55.76945 | 12.88175 | 10571 ft | 309 kts | 38° |
| 2026-05-06 13:04 | 55.78657 | 12.90677 | 11209 ft | 326 kts | 38° |
| 2026-05-06 13:04 | 55.80433 | 12.93282 | 12110 ft | 335 kts | 39° |
| 2026-05-06 13:04 | 55.82255 | 12.95961 | 13066 ft | 343 kts | 39° |
| 2026-05-06 13:04 | 55.84110 | 12.98690 | 14054 ft | 349 kts | 38° |
| 2026-05-06 13:05 | 55.85995 | 13.01470 | 14937 ft | 355 kts | 38° |
| 2026-05-06 13:05 | 55.87885 | 13.04264 | 15821 ft | 360 kts | 38° |
| 2026-05-06 13:05 | 55.89824 | 13.07135 | 16724 ft | 366 kts | 38° |
| 2026-05-06 13:05 | 55.91797 | 13.10056 | 17594 ft | 371 kts | 38° |
| 2026-05-06 13:06 | 55.93802 | 13.13021 | 18444 ft | 377 kts | 39° |
| 2026-05-06 13:06 | 55.95835 | 13.16035 | 19214 ft | 383 kts | 38° |
| 2026-05-06 13:06 | 55.97894 | 13.19095 | 19990 ft | 388 kts | 38° |
| 2026-05-06 13:06 | 55.99984 | 13.22198 | 20743 ft | 393 kts | 38° |
| 2026-05-06 13:07 | 56.02098 | 13.25343 | 21497 ft | 398 kts | 38° |
| 2026-05-06 13:07 | 56.04240 | 13.28533 | 22225 ft | 404 kts | 38° |
| 2026-05-06 13:07 | 56.06383 | 13.31732 | 22945 ft | 409 kts | 38° |
| 2026-05-06 13:07 | 56.08580 | 13.35020 | 23619 ft | 415 kts | 38° |
| 2026-05-06 13:08 | 56.10805 | 13.38359 | 24204 ft | 419 kts | 39° |
| 2026-05-06 13:08 | 56.13050 | 13.41737 | 24775 ft | 425 kts | 39° |
| 2026-05-06 13:08 | 56.15326 | 13.45168 | 25345 ft | 430 kts | 39° |
| 2026-05-06 13:08 | 56.17625 | 13.48633 | 25920 ft | 434 kts | 39° |
| 2026-05-06 13:09 | 56.19944 | 13.52134 | 26513 ft | 438 kts | 39° |
| 2026-05-06 13:09 | 56.22283 | 13.55671 | 27095 ft | 442 kts | 40° |
| 2026-05-06 13:09 | 56.24610 | 13.59193 | 27671 ft | 445 kts | 40° |
| 2026-05-06 13:09 | 56.26991 | 13.62803 | 28256 ft | 449 kts | 40° |
| 2026-05-06 13:10 | 56.29390 | 13.66447 | 28821 ft | 453 kts | 40° |
| 2026-05-06 13:10 | 56.31806 | 13.70126 | 29376 ft | 457 kts | 40° |
| 2026-05-06 13:10 | 56.34245 | 13.73846 | 29923 ft | 461 kts | 41° |
| 2026-05-06 13:10 | 56.36703 | 13.77598 | 30334 ft | 466 kts | 41° |
| 2026-05-06 13:11 | 56.39191 | 13.81406 | 30752 ft | 471 kts | 41° |
| 2026-05-06 13:11 | 56.41698 | 13.85250 | 31264 ft | 473 kts | 41° |
| 2026-05-06 13:11 | 56.44202 | 13.89096 | 31914 ft | 472 kts | 41° |
| 2026-05-06 13:11 | 56.46661 | 13.92874 | 32575 ft | 470 kts | 41° |
| 2026-05-06 13:12 | 56.49151 | 13.96703 | 33254 ft | 469 kts | 42° |
| 2026-05-06 13:12 | 56.51629 | 14.00521 | 33914 ft | 467 kts | 43° |
| 2026-05-06 13:12 | 56.54091 | 14.04323 | 34547 ft | 463 kts | 42° |
| 2026-05-06 13:12 | 56.56540 | 14.08110 | 35066 ft | 463 kts | 42° |
| 2026-05-06 13:13 | 56.58989 | 14.11906 | 35535 ft | 464 kts | 41° |
| 2026-05-06 13:13 | 56.61450 | 14.15732 | 35906 ft | 467 kts | 41° |
| 2026-05-06 13:13 | 56.63917 | 14.19579 | 36336 ft | 468 kts | 41° |
| 2026-05-06 13:13 | 56.66355 | 14.23387 | 36770 ft | 468 kts | 40° |
| 2026-05-06 13:14 | 56.68823 | 14.27245 | 37207 ft | 469 kts | 40° |
| 2026-05-06 13:14 | 56.71298 | 14.31120 | 37634 ft | 469 kts | 40° |
| 2026-05-06 13:14 | 56.73769 | 14.34994 | 38053 ft | 469 kts | 40° |
| 2026-05-06 13:14 | 56.76241 | 14.38871 | 38487 ft | 469 kts | 39° |
| 2026-05-06 13:15 | 56.78717 | 14.42761 | 38813 ft | 470 kts | 39° |
| 2026-05-06 13:15 | 56.81194 | 14.46664 | 38918 ft | 471 kts | 39° |
| 2026-05-06 13:15 | 56.83673 | 14.50582 | 38949 ft | 472 kts | 39° |
| 2026-05-06 13:16 | 56.88611 | 14.58407 | 38946 ft | 473 kts | 39° |
| 2026-05-06 13:16 | 56.93579 | 14.66304 | 38953 ft | 473 kts | 39° |
| 2026-05-06 13:17 | 56.98543 | 14.74217 | 38940 ft | 473 kts | 39° |
| 2026-05-06 13:17 | 57.03504 | 14.82156 | 38939 ft | 473 kts | 40° |
| 2026-05-06 13:18 | 57.08459 | 14.90124 | 38941 ft | 474 kts | 40° |
| 2026-05-06 13:18 | 57.13380 | 14.98065 | 38930 ft | 474 kts | 40° |
| 2026-05-06 13:19 | 57.18332 | 15.06086 | 38936 ft | 474 kts | 40° |
| 2026-05-06 13:19 | 57.23280 | 15.14135 | 38948 ft | 474 kts | 40° |
| 2026-05-06 13:20 | 57.28227 | 15.22200 | 38971 ft | 474 kts | 39° |
| 2026-05-06 13:20 | 57.33145 | 15.30226 | 38966 ft | 475 kts | 40° |
| 2026-05-06 13:21 | 57.38093 | 15.38350 | 38958 ft | 476 kts | 40° |
| 2026-05-06 13:21 | 57.43042 | 15.46511 | 38951 ft | 476 kts | 40° |
| 2026-05-06 13:22 | 57.47983 | 15.54699 | 38963 ft | 476 kts | 40° |
| 2026-05-06 13:22 | 57.52895 | 15.62864 | 38969 ft | 477 kts | 40° |
| 2026-05-06 13:23 | 57.57836 | 15.71121 | 38969 ft | 478 kts | 40° |
| 2026-05-06 13:23 | 57.62778 | 15.79405 | 38972 ft | 478 kts | 40° |
| 2026-05-06 13:24 | 57.67697 | 15.87665 | 38974 ft | 478 kts | 40° |
| 2026-05-06 13:24 | 57.72635 | 15.96008 | 38979 ft | 478 kts | 40° |
| 2026-05-06 13:25 | 57.77572 | 16.04374 | 38989 ft | 478 kts | 40° |
| 2026-05-06 13:25 | 57.82501 | 16.12751 | 38992 ft | 478 kts | 40° |
| 2026-05-06 13:26 | 57.87390 | 16.21104 | 39001 ft | 478 kts | 40° |
| 2026-05-06 13:26 | 57.92303 | 16.29541 | 39002 ft | 478 kts | 40° |
| 2026-05-06 13:27 | 57.97219 | 16.37984 | 39019 ft | 478 kts | 40° |
| 2026-05-06 13:27 | 57.99676 | 16.42218 | 38872 ft | 480 kts | 40° |
| 2026-05-06 13:27 | 58.02153 | 16.46493 | 38144 ft | 484 kts | 40° |
| 2026-05-06 13:27 | 58.04622 | 16.50769 | 37651 ft | 479 kts | 41° |
| 2026-05-06 13:28 | 58.07067 | 16.55014 | 37119 ft | 477 kts | 41° |
| 2026-05-06 13:28 | 58.09470 | 16.59193 | 36569 ft | 475 kts | 42° |
| 2026-05-06 13:28 | 58.11892 | 16.63413 | 36006 ft | 473 kts | 42° |
| 2026-05-06 13:28 | 58.14313 | 16.67637 | 35404 ft | 473 kts | 43° |
| 2026-05-06 13:29 | 58.16732 | 16.71868 | 34796 ft | 474 kts | 43° |
| 2026-05-06 13:29 | 58.19157 | 16.76119 | 34160 ft | 475 kts | 44° |
| 2026-05-06 13:29 | 58.21586 | 16.80379 | 33463 ft | 477 kts | 43° |
| 2026-05-06 13:29 | 58.24024 | 16.84659 | 32774 ft | 477 kts | 43° |
| 2026-05-06 13:30 | 58.26454 | 16.88944 | 32083 ft | 477 kts | 43° |
| 2026-05-06 13:30 | 58.28859 | 16.93191 | 31414 ft | 478 kts | 43° |
| 2026-05-06 13:30 | 58.31286 | 16.97488 | 30723 ft | 477 kts | 43° |
| 2026-05-06 13:30 | 58.33713 | 17.01792 | 30057 ft | 476 kts | 43° |
| 2026-05-06 13:31 | 58.36134 | 17.06091 | 29313 ft | 475 kts | 43° |
| 2026-05-06 13:31 | 58.38535 | 17.10360 | 28662 ft | 471 kts | 43° |
| 2026-05-06 13:31 | 58.40920 | 17.14611 | 28007 ft | 468 kts | 43° |
| 2026-05-06 13:31 | 58.43289 | 17.18843 | 27358 ft | 464 kts | 43° |
| 2026-05-06 13:32 | 58.45632 | 17.23048 | 26741 ft | 461 kts | 42° |
| 2026-05-06 13:32 | 58.47949 | 17.27257 | 26089 ft | 458 kts | 42° |
| 2026-05-06 13:32 | 58.50203 | 17.31401 | 25490 ft | 455 kts | 42° |
| 2026-05-06 13:32 | 58.52464 | 17.35605 | 24878 ft | 451 kts | 42° |
| 2026-05-06 13:33 | 58.54694 | 17.39795 | 24286 ft | 448 kts | 42° |
| 2026-05-06 13:33 | 58.56897 | 17.43979 | 23702 ft | 444 kts | 42° |
| 2026-05-06 13:33 | 58.59053 | 17.48118 | 22940 ft | 429 kts | 42° |
| 2026-05-06 13:33 | 58.61147 | 17.52127 | 22178 ft | 422 kts | 42° |
| 2026-05-06 13:34 | 58.63209 | 17.56081 | 21470 ft | 416 kts | 43° |
| 2026-05-06 13:34 | 58.65241 | 17.59982 | 20972 ft | 411 kts | 43° |
| 2026-05-06 13:34 | 58.67265 | 17.63860 | 20469 ft | 410 kts | 43° |
| 2026-05-06 13:34 | 58.69240 | 17.67671 | 20002 ft | 405 kts | 43° |
| 2026-05-06 13:35 | 58.71211 | 17.71492 | 19512 ft | 400 kts | 43° |
| 2026-05-06 13:35 | 58.73188 | 17.75214 | 19017 ft | 395 kts | 41° |
| 2026-05-06 13:35 | 58.75177 | 17.78823 | 18544 ft | 391 kts | 40° |
| 2026-05-06 13:35 | 58.77219 | 17.82206 | 18151 ft | 381 kts | 31° |
| 2026-05-06 13:36 | 58.79505 | 17.84693 | 17730 ft | 375 kts | 24° |
| 2026-05-06 13:36 | 58.81805 | 17.87021 | 17265 ft | 371 kts | 24° |
| 2026-05-06 13:36 | 58.84084 | 17.89302 | 16813 ft | 367 kts | 24° |
| 2026-05-06 13:36 | 58.86314 | 17.91527 | 16372 ft | 363 kts | 24° |
| 2026-05-06 13:37 | 58.88546 | 17.93757 | 15932 ft | 360 kts | 24° |
| 2026-05-06 13:37 | 58.90759 | 17.95978 | 15500 ft | 356 kts | 24° |
| 2026-05-06 13:37 | 58.92947 | 17.98181 | 15077 ft | 352 kts | 24° |
| 2026-05-06 13:37 | 58.95105 | 18.00357 | 14657 ft | 348 kts | 24° |
| 2026-05-06 13:38 | 58.97240 | 18.02508 | 14244 ft | 344 kts | 24° |
| 2026-05-06 13:38 | 58.99349 | 18.04637 | 13849 ft | 339 kts | 24° |
| 2026-05-06 13:38 | 59.01432 | 18.06741 | 13469 ft | 336 kts | 24° |
| 2026-05-06 13:38 | 59.03578 | 18.08179 | 13091 ft | 329 kts | 9° |
| 2026-05-06 13:39 | 59.05808 | 18.09082 | 12718 ft | 326 kts | 8° |
| 2026-05-06 13:39 | 59.08024 | 18.09936 | 12351 ft | 324 kts | 8° |
| 2026-05-06 13:39 | 59.10226 | 18.10780 | 12061 ft | 322 kts | 8° |
| 2026-05-06 13:39 | 59.12418 | 18.11617 | 11776 ft | 320 kts | 8° |
| 2026-05-06 13:40 | 59.14598 | 18.12449 | 11489 ft | 318 kts | 8° |
| 2026-05-06 13:40 | 59.16767 | 18.13274 | 11207 ft | 317 kts | 8° |
| 2026-05-06 13:40 | 59.18927 | 18.14094 | 10926 ft | 315 kts | 8° |
| 2026-05-06 13:40 | 59.21041 | 18.14907 | 10664 ft | 312 kts | 8° |
| 2026-05-06 13:41 | 59.23162 | 18.15736 | 10385 ft | 308 kts | 8° |
| 2026-05-06 13:41 | 59.25233 | 18.16546 | 10112 ft | 299 kts | 8° |
| 2026-05-06 13:41 | 59.27243 | 18.17331 | 9843 ft | 291 kts | 8° |
| 2026-05-06 13:41 | 59.29200 | 18.18094 | 9521 ft | 284 kts | 8° |
| 2026-05-06 13:42 | 59.31127 | 18.18838 | 9225 ft | 281 kts | 8° |
| 2026-05-06 13:42 | 59.33040 | 18.19569 | 8927 ft | 279 kts | 8° |
| 2026-05-06 13:42 | 59.34942 | 18.20285 | 8634 ft | 278 kts | 8° |
| 2026-05-06 13:42 | 59.36811 | 18.20979 | 8343 ft | 276 kts | 8° |
| 2026-05-06 13:43 | 59.38695 | 18.21668 | 8049 ft | 275 kts | 8° |
| 2026-05-06 13:43 | 59.40569 | 18.22347 | 7761 ft | 273 kts | 8° |
| 2026-05-06 13:43 | 59.42429 | 18.23018 | 7474 ft | 271 kts | 8° |
| 2026-05-06 13:43 | 59.44281 | 18.23692 | 7189 ft | 270 kts | 8° |
| 2026-05-06 13:44 | 59.46125 | 18.24352 | 7013 ft | 269 kts | 8° |
| 2026-05-06 13:44 | 59.47967 | 18.24959 | 6998 ft | 269 kts | 4° |
| 2026-05-06 13:44 | 59.49834 | 18.24723 | 6908 ft | 271 kts | 349° |
| 2026-05-06 13:44 | 59.51679 | 18.24118 | 6580 ft | 268 kts | 348° |
| 2026-05-06 13:45 | 59.53485 | 18.23484 | 6248 ft | 267 kts | 348° |
| 2026-05-06 13:45 | 59.57120 | 18.22177 | 5540 ft | 264 kts | 348° |
| 2026-05-06 13:45 | 59.58924 | 18.21527 | 5225 ft | 263 kts | 348° |
| 2026-05-06 13:46 | 59.60724 | 18.20885 | 4977 ft | 262 kts | 348° |
| 2026-05-06 13:46 | 59.62517 | 18.20245 | 4705 ft | 260 kts | 348° |
| 2026-05-06 13:46 | 59.64268 | 18.19619 | 4429 ft | 251 kts | 348° |
| 2026-05-06 13:46 | 59.65909 | 18.19034 | 4179 ft | 225 kts | 348° |
| 2026-05-06 13:47 | 59.67392 | 18.18501 | 3932 ft | 211 kts | 347° |
| 2026-05-06 13:47 | 59.68802 | 18.18009 | 3694 ft | 200 kts | 348° |
| 2026-05-06 13:47 | 59.70128 | 18.17560 | 3549 ft | 191 kts | 348° |
| 2026-05-06 13:47 | 59.71423 | 18.17132 | 3412 ft | 188 kts | 349° |
| 2026-05-06 13:48 | 59.72709 | 18.16690 | 3258 ft | 187 kts | 347° |
| 2026-05-06 13:48 | 59.73993 | 18.16250 | 3100 ft | 188 kts | 348° |
| 2026-05-06 13:48 | 59.75274 | 18.15795 | 2935 ft | 187 kts | 347° |
| 2026-05-06 13:48 | 59.76480 | 18.14883 | 2786 ft | 186 kts | 331° |
| 2026-05-06 13:49 | 59.77606 | 18.13634 | 2619 ft | 186 kts | 328° |
| 2026-05-06 13:49 | 59.78703 | 18.12382 | 2532 ft | 179 kts | 327° |
| 2026-05-06 13:49 | 59.79783 | 18.11154 | 2476 ft | 181 kts | 328° |
| 2026-05-06 13:49 | 59.80867 | 18.09884 | 2491 ft | 181 kts | 325° |
| 2026-05-06 13:50 | 59.81641 | 18.08007 | 2489 ft | 177 kts | 289° |
| 2026-05-06 13:50 | 59.81800 | 18.05632 | 2488 ft | 173 kts | 262° |
| 2026-05-06 13:50 | 59.81402 | 18.03442 | 2491 ft | 171 kts | 235° |
| 2026-05-06 13:50 | 59.80550 | 18.01865 | 2506 ft | 167 kts | 214° |
| 2026-05-06 13:51 | 59.79468 | 18.01211 | 2496 ft | 156 kts | 192° |
| 2026-05-06 13:51 | 59.78479 | 18.00850 | 2495 ft | 133 kts | 192° |
| 2026-05-06 13:51 | 59.77607 | 18.00530 | 2499 ft | 124 kts | 192° |
| 2026-05-06 13:51 | 59.76773 | 18.00223 | 2447 ft | 120 kts | 192° |
| 2026-05-06 13:52 | 59.75952 | 17.99922 | 2362 ft | 119 kts | 192° |
| 2026-05-06 13:52 | 59.75139 | 17.99624 | 2251 ft | 119 kts | 192° |
| 2026-05-06 13:52 | 59.74329 | 17.99338 | 2118 ft | 118 kts | 191° |
| 2026-05-06 13:52 | 59.73534 | 17.99047 | 1901 ft | 117 kts | 191° |
| 2026-05-06 13:53 | 59.72732 | 17.98757 | 1742 ft | 117 kts | 190° |
| 2026-05-06 13:53 | 59.71931 | 17.98465 | 1591 ft | 117 kts | 191° |
| 2026-05-06 13:53 | 59.71131 | 17.98165 | 1384 ft | 117 kts | 191° |
| 2026-05-06 13:53 | 59.70331 | 17.97886 | 1268 ft | 118 kts | 189° |
| 2026-05-06 13:54 | 59.69521 | 17.97589 | 1094 ft | 119 kts | 189° |
| 2026-05-06 13:54 | 59.68705 | 17.97291 | 935 ft | 119 kts | 192° |
| 2026-05-06 13:54 | 59.67895 | 17.96994 | 769 ft | 119 kts | 190° |
| 2026-05-06 13:54 | 59.67080 | 17.96699 | 591 ft | 118 kts | 192° |
| 2026-05-06 13:55 | 59.66282 | 17.96410 | 437 ft | 118 kts | 195° |
| 2026-05-06 13:55 | 59.65477 | 17.96112 | 271 ft | 118 kts | 194° |
| 2026-05-06 13:55 | 59.64675 | 17.95823 | 123 ft | 116 kts | 194° |
| 2026-05-06 13:55 | 59.63979 | 17.95562 | 113 ft | 74 kts | 190° |
| 2026-05-06 13:56 | 59.63656 | 17.95446 | 115 ft | 22 kts | 191° |
| 2026-05-06 13:56 | 59.63501 | 17.95379 | 122 ft | 33 kts | 198° |
| 2026-05-06 13:56 | 59.63297 | 17.95126 | 120 ft | 23 kts | 220° |
| 2026-05-06 13:56 | 59.63247 | 17.94989 | 123 ft | 11 kts | 276° |
| 2026-05-06 13:57 | 59.63290 | 17.94908 | 124 ft | 9 kts | 1° |
| 2026-05-06 13:57 | 59.63361 | 17.94927 | 121 ft | 12 kts | 10° |
| 2026-05-06 13:57 | 59.63454 | 17.94960 | 116 ft | 15 kts | 10° |
| 2026-05-06 13:57 | 59.63571 | 17.95003 | 116 ft | 19 kts | 12° |
| 2026-05-06 13:58 | 59.63714 | 17.95054 | 111 ft | 23 kts | 10° |
| 2026-05-06 13:58 | 59.63878 | 17.95116 | 110 ft | 25 kts | 11° |
| 2026-05-06 13:58 | 59.64058 | 17.95183 | 108 ft | 27 kts | 10° |
| 2026-05-06 13:58 | 59.64250 | 17.95230 | 106 ft | 28 kts | 356° |
| 2026-05-06 13:59 | 59.64397 | 17.94990 | 103 ft | 29 kts | 284° |
| 2026-05-06 13:59 | 59.64346 | 17.94596 | 104 ft | 31 kts | 242° |
| 2026-05-06 13:59 | 59.64226 | 17.94218 | 104 ft | 33 kts | 238° |
| 2026-05-06 13:59 | 59.64103 | 17.93830 | 111 ft | 33 kts | 238° |
| 2026-05-06 14:00 | 59.63989 | 17.93432 | 112 ft | 34 kts | 258° |
| 2026-05-06 14:00 | 59.64063 | 17.93004 | 112 ft | 34 kts | 299° |
| 2026-05-06 14:00 | 59.64175 | 17.92584 | 114 ft | 35 kts | 297° |
| 2026-05-06 14:00 | 59.64266 | 17.92237 | 112 ft | 25 kts | 298° |
| 2026-05-06 14:01 | 59.64364 | 17.92082 | 114 ft | 16 kts | 5° |
| 2026-05-06 14:01 | 59.64520 | 17.92135 | 113 ft | 30 kts | 10° |
| 2026-05-06 14:01 | 59.64687 | 17.92197 | 112 ft | 18 kts | 10° |
| 2026-05-06 14:01 | 59.64720 | 17.92318 | 112 ft | 7 kts | 79° |
| 2026-05-06 14:02 | 59.64756 | 17.92361 | 112 ft | 6 kts | 26° |
| 2026-05-06 14:02 | 59.64778 | 17.92396 | 112 ft | 1 kts | 44° |
| 2026-05-06 14:02 | 59.64780 | 17.92398 | 112 ft | 0 kts | 44° |